Time;durP1;ratioP1;P1;durP2;ratioP2;P2;SDS_P1;SDS_P2;PMS_P1;PMS_P2;Temp;Humidity;BMP_temperature;BMP_pressure;BME280_temperature;BME280_humidity;BME280_pressure;Samples;Min_cycle;Max_cycle;Signal;HPM_P1;HPM_P2
2021/03/22 00:01:06;;;;;;;18.00;9.40;;;3.60;74.20;;;;;;1659937;86;21130;-73
2021/03/22 00:03:35;;;;;;;17.73;9.25;;;3.60;73.00;;;;;;1659738;86;21111;-74
2021/03/22 00:06:06;;;;;;;17.15;9.05;;;3.50;73.40;;;;;;1659657;86;21137;-74
2021/03/22 00:08:34;;;;;;;19.27;9.15;;;3.60;74.00;;;;;;1659687;86;21130;-74
2021/03/22 00:11:03;;;;;;;15.20;8.90;;;3.60;73.60;;;;;;1660698;86;21165;-74
2021/03/22 00:13:33;;;;;;;17.95;9.30;;;3.60;74.10;;;;;;1667984;86;21572;-74
2021/03/22 00:16:06;;;;;;;18.67;9.73;;;3.80;73.30;;;;;;1667859;86;21703;-74
2021/03/22 00:18:38;;;;;;;17.17;8.53;;;3.70;72.10;;;;;;1667953;86;21151;-74
2021/03/22 00:21:09;;;;;;;21.07;10.40;;;3.80;72.40;;;;;;1667805;86;21129;-74
2021/03/22 00:23:37;;;;;;;19.75;10.03;;;3.90;71.70;;;;;;1667771;86;21272;-74
2021/03/22 00:26:06;;;;;;;19.90;9.70;;;4.00;71.00;;;;;;1667891;86;21276;-74
2021/03/22 00:28:38;;;;;;;17.87;10.30;;;3.90;69.80;;;;;;1668238;86;21150;-74
2021/03/22 00:31:15;;;;;;;17.00;9.23;;;3.90;69.70;;;;;;1668188;86;21161;-74
2021/03/22 00:33:43;;;;;;;15.60;8.58;;;4.00;70.80;;;;;;1667935;86;21277;-73
2021/03/22 00:36:11;;;;;;;15.93;9.25;;;4.00;70.20;;;;;;1667895;86;21312;-73
2021/03/22 00:38:39;;;;;;;16.40;8.78;;;4.00;70.20;;;;;;1668391;86;21166;-73
2021/03/22 00:41:07;;;;;;;16.52;9.08;;;4.00;70.20;;;;;;1667906;86;21276;-73
2021/03/22 00:43:35;;;;;;;19.23;9.20;;;4.00;70.20;;;;;;1667913;86;21288;-74
2021/03/22 00:46:03;;;;;;;14.23;8.53;;;4.00;70.10;;;;;;1667982;86;21157;-73
2021/03/22 00:48:34;;;;;;;15.85;8.38;;;4.10;70.20;;;;;;1668254;86;21165;-73
2021/03/22 00:51:06;;;;;;;19.80;9.38;;;4.00;70.40;;;;;;1667934;86;21300;-73
2021/03/22 00:53:36;;;;;;;16.07;8.15;;;4.00;70.40;;;;;;1668041;86;21130;-73
2021/03/22 00:56:04;;;;;;;18.90;9.30;;;3.90;69.20;;;;;;1668187;86;21190;-73
2021/03/22 00:58:33;;;;;;;17.40;9.48;;;4.00;68.90;;;;;;1668075;86;21165;-73
2021/03/22 01:01:01;;;;;;;17.23;9.23;;;3.80;68.20;;;;;;1667904;86;21288;-74
2021/03/22 01:03:33;;;;;;;19.10;9.25;;;3.60;69.20;;;;;;1668096;86;21572;-73
2021/03/22 01:06:05;;;;;;;16.50;8.60;;;3.50;69.30;;;;;;1668005;86;21252;-73
2021/03/22 01:08:37;;;;;;;16.82;8.78;;;3.40;69.00;;;;;;1668034;86;21149;-73
2021/03/22 01:11:19;;;;;;;15.70;8.45;;;3.40;69.20;;;;;;1667422;86;21257;-73
2021/03/22 01:13:54;;;;;;;19.98;8.45;;;3.40;69.80;;;;;;1659816;86;21529;-73
2021/03/22 01:16:32;;;;;;;16.50;8.50;;;3.50;69.70;;;;;;1659771;86;21126;-73
2021/03/22 01:19:04;;;;;;;16.62;8.73;;;3.60;69.40;;;;;;1659943;86;21159;-73
2021/03/22 01:21:40;;;;;;;13.72;7.78;;;3.70;69.40;;;;;;1659034;86;21612;-73
2021/03/22 01:24:11;;;;;;;14.58;7.87;;;3.70;70.70;;;;;;1660049;86;21573;-73
2021/03/22 01:26:40;;;;;;;13.58;7.35;;;3.60;72.90;;;;;;1660005;86;21154;-74
2021/03/22 01:29:15;;;;;;;15.45;7.83;;;3.60;72.60;;;;;;1659900;86;21692;-73
2021/03/22 01:31:45;;;;;;;15.50;8.28;;;3.60;72.50;;;;;;1659887;86;21134;-74
2021/03/22 01:34:14;;;;;;;16.00;8.45;;;3.60;71.60;;;;;;1659715;86;21123;-74
2021/03/22 01:36:42;;;;;;;14.90;7.53;;;3.50;72.00;;;;;;1659896;86;21127;-74
2021/03/22 01:39:18;;;;;;;15.10;8.70;;;3.50;73.20;;;;;;1659700;86;21150;-73
2021/03/22 01:42:12;;;;;;;16.07;8.43;;;3.60;71.60;;;;;;1660016;84;21130;-74
2021/03/22 01:44:48;;;;;;;17.95;8.30;;;3.60;70.30;;;;;;1659522;86;21146;-73
2021/03/22 01:47:21;;;;;;;15.00;8.48;;;3.50;69.70;;;;;;1659822;86;21131;-74
2021/03/22 01:49:54;;;;;;;18.30;8.35;;;3.50;69.90;;;;;;1660000;86;21122;-74
2021/03/22 01:52:26;;;;;;;17.82;8.48;;;3.40;70.10;;;;;;1659893;86;21135;-73
2021/03/22 01:54:55;;;;;;;14.70;7.78;;;3.30;70.40;;;;;;1660294;86;21533;-74
2021/03/22 01:57:43;;;;;;;17.65;8.30;;;3.30;70.40;;;;;;1659776;86;21151;-73
2021/03/22 02:00:31;;;;;;;15.25;8.35;;;3.30;70.60;;;;;;1659162;86;21600;-74
2021/03/22 02:03:17;;;;;;;15.35;8.40;;;3.40;70.20;;;;;;1659915;86;21581;-74
2021/03/22 02:05:50;;;;;;;17.95;9.33;;;3.30;69.70;;;;;;1659906;86;21099;-73
2021/03/22 02:08:25;;;;;;;14.07;7.87;;;3.20;69.50;;;;;;1659884;86;21568;-72
2021/03/22 02:10:55;;;;;;;15.20;7.53;;;3.20;69.30;;;;;;1659999;86;21138;-73
2021/03/22 02:13:27;;;;;;;17.57;8.03;;;3.30;69.60;;;;;;1659819;86;21190;-73
2021/03/22 02:16:19;;;;;;;13.15;7.10;;;3.20;69.80;;;;;;1659702;86;21135;-73
2021/03/22 02:19:19;;;;;;;14.33;7.67;;;3.30;69.90;;;;;;1659726;86;21131;-72
2021/03/22 02:22:26;;;;;;;15.00;7.72;;;3.20;72.40;;;;;;1564267;86;21167;-72
2021/03/22 02:25:37;;;;;;;13.45;7.37;;;3.20;70.80;;;;;;1659704;86;21151;-72
2021/03/22 02:28:18;;;;;;;15.08;7.75;;;3.10;72.90;;;;;;1659621;86;21162;-72
2021/03/22 02:31:19;;;;;;;13.93;7.67;;;3.10;71.30;;;;;;1658375;86;21166;-73
2021/03/22 02:34:16;;;;;;;15.78;7.87;;;3.20;70.40;;;;;;1657595;85;21147;-72
2021/03/22 02:37:15;;;;;;;15.98;7.65;;;3.10;70.00;;;;;;1659624;86;21138;-73
2021/03/22 02:40:14;;;;;;;14.10;7.37;;;3.20;69.20;;;;;;1659030;85;21179;-73
2021/03/22 02:42:45;;;;;;;12.95;7.20;;;3.10;69.90;;;;;;1659882;86;21174;-73
2021/03/22 02:45:25;;;;;;;13.43;7.08;;;3.10;71.10;;;;;;1659974;86;21134;-72
2021/03/22 02:47:55;;;;;;;15.38;7.70;;;3.10;70.70;;;;;;1659666;86;21147;-72
2021/03/22 02:50:28;;;;;;;16.32;8.03;;;3.00;71.40;;;;;;1660062;86;21580;-73
2021/03/22 02:53:13;;;;;;;16.15;8.20;;;3.00;70.50;;;;;;1659225;86;21146;-73
2021/03/22 02:55:49;;;;;;;16.23;7.85;;;3.00;71.10;;;;;;1659752;86;21573;-72
2021/03/22 02:58:20;;;;;;;15.68;7.95;;;3.00;69.90;;;;;;1659990;86;21138;-72
2021/03/22 03:01:13;;;;;;;14.58;8.00;;;3.00;71.40;;;;;;1659958;86;21122;-72
2021/03/22 03:03:45;;;;;;;21.33;9.83;;;2.90;71.20;;;;;;1659658;86;21604;-73
2021/03/22 03:06:13;;;;;;;14.70;7.53;;;2.90;71.40;;;;;;1660254;86;21533;-74
2021/03/22 03:08:42;;;;;;;13.80;6.83;;;2.90;70.90;;;;;;1659837;86;21171;-73
2021/03/22 03:11:12;;;;;;;15.75;7.33;;;3.00;70.10;;;;;;1659867;86;21557;-74
2021/03/22 03:13:40;;;;;;;14.38;8.10;;;3.00;70.30;;;;;;1659630;86;21538;-74
2021/03/22 03:16:09;;;;;;;15.25;7.78;;;3.10;70.00;;;;;;1660040;86;21162;-73
2021/03/22 03:18:37;;;;;;;14.20;7.65;;;3.10;69.80;;;;;;1659855;86;21151;-73
2021/03/22 03:21:04;;;;;;;15.83;8.03;;;3.10;70.00;;;;;;1659652;86;21143;-73
2021/03/22 03:23:32;;;;;;;15.18;7.62;;;3.20;69.60;;;;;;1659817;86;21146;-73
2021/03/22 03:25:59;;;;;;;15.20;7.55;;;3.10;69.90;;;;;;1659639;86;21220;-73
2021/03/22 03:28:27;;;;;;;14.80;7.70;;;3.10;72.10;;;;;;1659595;86;21158;-73
2021/03/22 03:30:57;;;;;;;15.45;8.13;;;3.10;72.80;;;;;;1659803;86;21143;-74
2021/03/22 03:33:28;;;;;;;13.45;7.22;;;2.90;72.70;;;;;;1660033;86;21164;-73
2021/03/22 03:35:57;;;;;;;14.98;8.10;;;2.90;74.00;;;;;;1659633;86;21134;-73
2021/03/22 03:38:25;;;;;;;13.28;7.08;;;2.90;73.90;;;;;;1659900;86;21158;-73
2021/03/22 03:40:52;;;;;;;14.73;7.00;;;2.80;75.60;;;;;;1659748;86;21601;-74
2021/03/22 03:43:20;;;;;;;13.28;7.47;;;2.90;74.80;;;;;;1659841;86;21565;-73
2021/03/22 03:45:52;;;;;;;16.52;7.58;;;2.80;74.80;;;;;;1659745;86;21126;-74
2021/03/22 03:48:27;;;;;;;13.35;7.67;;;2.90;75.20;;;;;;1659624;86;21178;-73
2021/03/22 03:51:01;;;;;;;16.17;7.50;;;2.90;74.50;;;;;;1659755;86;21139;-73
2021/03/22 03:53:30;;;;;;;14.10;7.55;;;2.90;73.30;;;;;;1659815;86;21421;-73
2021/03/22 03:56:00;;;;;;;14.20;7.83;;;2.90;73.70;;;;;;1659624;86;21142;-73
2021/03/22 03:58:27;;;;;;;13.80;7.42;;;2.90;74.40;;;;;;1659657;86;21158;-73
2021/03/22 04:00:55;;;;;;;14.15;7.40;;;2.80;74.40;;;;;;1659728;86;21155;-74
2021/03/22 04:03:37;;;;;;;16.23;7.53;;;2.80;73.70;;;;;;1659700;86;21118;-73
2021/03/22 04:06:17;;;;;;;12.98;7.15;;;2.80;74.40;;;;;;1659829;86;21095;-74
2021/03/22 04:08:52;;;;;;;14.55;7.30;;;2.70;74.10;;;;;;1659270;86;21127;-73
2021/03/22 04:11:28;;;;;;;13.78;7.70;;;2.70;74.10;;;;;;1659973;86;21162;-74
2021/03/22 04:13:57;;;;;;;15.93;7.53;;;2.60;73.00;;;;;;1658656;86;21167;-72
2021/03/22 04:16:29;;;;;;;13.48;7.30;;;2.50;73.80;;;;;;1660115;86;21179;-73
2021/03/22 04:18:58;;;;;;;15.58;7.35;;;2.40;74.80;;;;;;1660238;86;21510;-73
2021/03/22 04:21:29;;;;;;;13.90;7.25;;;2.40;75.00;;;;;;1659753;86;21166;-74
2021/03/22 04:24:00;;;;;;;15.20;7.47;;;2.30;74.30;;;;;;1659781;86;21595;-74
2021/03/22 04:26:28;;;;;;;14.23;7.47;;;2.30;74.20;;;;;;1659938;86;21558;-73
2021/03/22 04:28:56;;;;;;;13.78;7.72;;;2.30;75.20;;;;;;1659914;86;21605;-73
2021/03/22 04:31:27;;;;;;;13.78;7.10;;;2.30;75.80;;;;;;1659961;86;21122;-73
2021/03/22 04:33:58;;;;;;;14.83;7.53;;;2.30;74.40;;;;;;1659982;86;21134;-73
2021/03/22 04:36:30;;;;;;;14.78;7.80;;;2.30;72.60;;;;;;1659916;86;21131;-73
2021/03/22 04:38:59;;;;;;;14.30;7.15;;;2.40;73.40;;;;;;1659991;86;21107;-73
2021/03/22 04:41:27;;;;;;;14.83;8.08;;;2.40;74.80;;;;;;1659788;86;21119;-74
2021/03/22 04:43:54;;;;;;;15.83;7.85;;;2.40;75.10;;;;;;1659863;86;21146;-74
2021/03/22 04:46:22;;;;;;;17.67;7.92;;;2.40;76.30;;;;;;1659848;86;21601;-74
2021/03/22 04:48:51;;;;;;;14.00;7.50;;;2.50;75.90;;;;;;1658257;86;21166;-74
2021/03/22 04:51:19;;;;;;;15.13;7.55;;;2.50;75.40;;;;;;1659762;86;21609;-74
2021/03/22 04:53:46;;;;;;;15.15;8.03;;;2.60;74.90;;;;;;1660308;86;21126;-73
2021/03/22 04:56:14;;;;;;;14.70;7.58;;;2.70;75.40;;;;;;1659902;86;21601;-74
2021/03/22 04:58:42;;;;;;;18.17;7.50;;;2.60;75.20;;;;;;1659912;86;21163;-73
2021/03/22 05:01:10;;;;;;;13.95;7.25;;;2.60;74.70;;;;;;1659765;86;21174;-73
2021/03/22 05:03:38;;;;;;;17.73;8.10;;;2.70;73.80;;;;;;1659724;86;21155;-74
2021/03/22 05:06:06;;;;;;;15.13;8.30;;;2.70;71.70;;;;;;1659784;86;21119;-72
2021/03/22 05:08:34;;;;;;;19.48;8.40;;;2.70;72.60;;;;;;1659960;86;21589;-72
2021/03/22 05:11:02;;;;;;;15.32;7.42;;;2.70;72.90;;;;;;1659922;86;21163;-73
2021/03/22 05:13:30;;;;;;;15.95;8.58;;;2.70;72.40;;;;;;1659717;84;21170;-73
2021/03/22 05:15:59;;;;;;;14.80;7.92;;;2.70;71.50;;;;;;1659891;86;21195;-73
2021/03/22 05:18:31;;;;;;;15.38;7.80;;;2.60;71.30;;;;;;1659745;86;21158;-73
2021/03/22 05:21:06;;;;;;;14.90;7.47;;;2.70;71.30;;;;;;1659745;86;21127;-73
2021/03/22 05:23:38;;;;;;;16.00;8.00;;;2.60;70.60;;;;;;1659991;86;21143;-73
2021/03/22 05:26:09;;;;;;;14.35;7.22;;;2.70;70.80;;;;;;1659769;86;21139;-73
2021/03/22 05:28:44;;;;;;;19.02;8.23;;;2.80;70.40;;;;;;1659883;86;21127;-73
2021/03/22 05:31:09;;;;;;;17.12;7.95;;;2.90;70.60;;;;;;1659965;84;21160;-74
2021/03/22 05:33:38;;;;;;;14.87;7.95;;;2.90;69.80;;;;;;1659890;86;21581;-73
2021/03/22 05:36:06;;;;;;;15.60;8.00;;;2.90;69.20;;;;;;1659715;86;21150;-73
2021/03/22 05:38:34;;;;;;;15.65;7.80;;;2.90;68.60;;;;;;1659713;86;21150;-73
2021/03/22 05:41:10;;;;;;;14.47;8.35;;;2.90;68.30;;;;;;1659686;86;21122;-74
2021/03/22 05:44:04;;;;;;;16.12;7.87;;;2.80;68.50;;;;;;1659695;86;21137;-73
2021/03/22 05:47:06;;;;;;;15.48;7.90;;;2.70;68.90;;;;;;1659747;86;21159;-74
2021/03/22 05:50:15;;;;;;;15.98;8.23;;;2.80;69.00;;;;;;1657544;86;21596;-74
2021/03/22 05:53:16;;;;;;;15.78;7.92;;;2.70;69.30;;;;;;1659143;85;21191;-75
2021/03/22 05:55:55;;;;;;;16.40;8.25;;;2.80;69.50;;;;;;1658451;86;21134;-75
2021/03/22 05:58:34;;;;;;;14.78;8.43;;;3.10;68.80;;;;;;1660189;86;21150;-74
2021/03/22 06:01:39;;;;;;;14.30;7.58;;;3.10;68.20;;;;;;1659888;86;21122;-73
2021/03/22 06:04:45;;;;;;;17.73;8.13;;;3.30;67.80;;;;;;1659796;86;21558;-73
2021/03/22 06:07:20;;;;;;;16.90;8.08;;;3.30;67.70;;;;;;1659026;86;21592;-74
2021/03/22 06:10:02;;;;;;;17.35;8.70;;;3.30;67.10;;;;;;1659949;86;21111;-74
2021/03/22 06:12:53;;;;;;;16.30;8.03;;;3.40;66.00;;;;;;1659134;86;21135;-73
2021/03/22 06:15:32;;;;;;;29.75;9.40;;;3.60;66.20;;;;;;1659679;86;21130;-73
2021/03/22 06:18:38;;;;;;;18.40;9.30;;;3.70;66.40;;;;;;1659707;86;21139;-72
2021/03/22 06:21:14;;;;;;;19.80;8.80;;;3.70;65.60;;;;;;1659698;86;21162;-74
2021/03/22 06:23:45;;;;;;;20.17;9.68;;;3.60;65.80;;;;;;1659692;86;21139;-72
2021/03/22 06:26:38;;;;;;;20.32;10.40;;;3.50;65.80;;;;;;1659850;86;21602;-74
2021/03/22 06:29:36;;;;;;;20.35;9.98;;;3.60;66.50;;;;;;1659928;86;21162;-74
2021/03/22 06:32:19;;;;;;;;;;;3.60;66.10;;;;;;1662122;86;21565;-73
2021/03/22 06:34:58;;;;;;;18.82;9.70;;;3.60;66.00;;;;;;1659769;86;20149;-74
2021/03/22 06:37:34;;;;;;;26.42;11.90;;;3.70;66.90;;;;;;1659867;86;21146;-74
2021/03/22 06:40:13;;;;;;;25.40;11.75;;;3.70;65.70;;;;;;1659874;86;21561;-74
2021/03/22 06:42:44;;;;;;;21.27;10.88;;;3.60;65.50;;;;;;1659832;86;21142;-74
2021/03/22 06:45:38;;;;;;;22.35;10.85;;;3.70;66.00;;;;;;1659773;86;21573;-74
2021/03/22 06:48:27;;;;;;;21.48;9.03;;;3.80;65.20;;;;;;1659874;86;21581;-74
2021/03/22 06:51:13;;;;;;;20.80;9.28;;;3.80;63.20;;;;;;1659884;86;21537;-73
2021/03/22 06:53:53;;;;;;;18.40;10.43;;;4.00;63.60;;;;;;1659939;86;21143;-74
2021/03/22 06:56:29;;;;;;;24.50;10.90;;;4.20;64.90;;;;;;1659686;86;21142;-73
2021/03/22 06:59:18;;;;;;;22.05;10.55;;;4.30;62.40;;;;;;1659958;86;21115;-73
2021/03/22 07:01:50;;;;;;;20.77;10.30;;;4.40;63.00;;;;;;1659777;86;21181;-73
2021/03/22 07:04:31;;;;;;;20.30;10.43;;;4.50;62.30;;;;;;1659670;86;21158;-73
2021/03/22 07:07:22;;;;;;;19.62;9.70;;;4.60;61.40;;;;;;1659745;86;21614;-72
2021/03/22 07:10:00;;;;;;;18.20;9.43;;;4.80;60.40;;;;;;1659653;86;21186;-73
2021/03/22 07:12:38;;;;;;;23.15;9.98;;;5.00;59.50;;;;;;1659673;86;21142;-73
2021/03/22 07:15:27;;;;;;;23.12;9.98;;;5.10;58.90;;;;;;1659766;86;21130;-73
2021/03/22 07:18:34;;;;;;;15.93;9.05;;;5.20;57.70;;;;;;1659658;86;21163;-74
2021/03/22 07:21:18;;;;;;;19.98;8.88;;;5.40;57.10;;;;;;1659421;85;21613;-73
2021/03/22 07:24:10;;;;;;;17.12;8.10;;;5.50;54.70;;;;;;1659868;86;21546;-74
2021/03/22 07:26:49;;;;;;;16.52;8.50;;;5.60;55.10;;;;;;1659539;85;21146;-74
2021/03/22 07:29:31;;;;;;;20.70;9.03;;;5.80;53.90;;;;;;1659616;85;21605;-74
2021/03/22 07:32:39;;;;;;;16.57;8.10;;;5.80;53.20;;;;;;1659799;86;21593;-73
2021/03/22 07:35:27;;;;;;;;;;;5.90;53.80;;;;;;1662271;86;21181;-73
2021/03/22 07:38:00;;;;;;;18.00;9.48;;;5.90;52.80;;;;;;1622973;86;20165;-72
2021/03/22 07:40:59;;;;;;;16.97;9.13;;;6.00;51.90;;;;;;1658438;85;21139;-72
2021/03/22 07:44:24;;;;;;;16.77;8.90;;;5.90;51.70;;;;;;1659763;86;21158;-74
2021/03/22 07:47:20;;;;;;;18.12;8.95;;;5.90;51.00;;;;;;1659656;86;21155;-74
2021/03/22 07:50:00;;;;;;;23.30;12.03;;;5.90;51.20;;;;;;1645391;86;28008;-74
2021/03/22 07:52:51;;;;;;;19.07;9.70;;;5.90;53.00;;;;;;1608245;88;21201;-71
2021/03/22 07:55:46;;;;;;;16.80;8.63;;;6.00;52.10;;;;;;1659665;86;21150;-73
2021/03/22 07:58:49;;;;;;;19.00;9.15;;;5.90;51.80;;;;;;1660252;86;21185;-74
2021/03/22 08:02:16;;;;;;;20.25;9.20;;;6.00;52.40;;;;;;1678389;84;21162;-72
2021/03/22 08:04:52;;;;;;;21.57;10.78;;;6.10;52.70;;;;;;1659677;86;21542;-72
2021/03/22 08:07:55;;;;;;;18.45;9.75;;;6.10;52.60;;;;;;1659085;86;21166;-73
2021/03/22 08:10:49;;;;;;;18.75;9.65;;;6.10;52.40;;;;;;1659712;86;21118;-73
2021/03/22 08:13:54;;;;;;;17.90;9.30;;;6.10;52.80;;;;;;1661107;86;21256;-73
2021/03/22 08:16:47;;;;;;;23.20;10.00;;;6.30;52.00;;;;;;1667350;86;21162;-73
2021/03/22 08:19:32;;;;;;;19.73;9.35;;;6.40;52.00;;;;;;1667162;86;21114;-73
2021/03/22 08:22:27;;;;;;;19.35;9.08;;;6.50;52.70;;;;;;1667434;86;21285;-74
2021/03/22 08:25:00;;;;;;;17.85;8.35;;;6.60;51.20;;;;;;1667953;86;21655;-74
2021/03/22 08:27:33;;;;;;;29.12;16.02;;;6.70;50.60;;;;;;1666721;86;21162;-74
2021/03/22 08:30:32;;;;;;;16.17;8.45;;;6.90;49.60;;;;;;1667764;86;21276;-73
2021/03/22 08:33:23;;;;;;;15.10;8.28;;;7.00;49.70;;;;;;1667773;86;21300;-73
2021/03/22 08:36:28;;;;;;;14.58;7.95;;;7.20;49.10;;;;;;1667851;86;21166;-73
2021/03/22 08:39:24;;;;;;;15.68;8.35;;;7.70;49.70;;;;;;1667499;86;21177;-73
2021/03/22 08:42:13;;;;;;;20.25;8.03;;;8.30;45.50;;;;;;1667985;86;21703;-73
2021/03/22 08:45:03;;;;;;;14.15;7.80;;;8.90;43.40;;;;;;1668034;86;21172;-73
2021/03/22 08:47:46;;;;;;;15.35;7.92;;;9.40;42.10;;;;;;1667851;86;21691;-73
2021/03/22 08:50:27;;;;;;;12.63;7.53;;;10.00;41.20;;;;;;1668113;86;21145;-73
2021/03/22 08:53:12;;;;;;;18.67;10.45;;;10.20;38.70;;;;;;1668092;86;21171;-73
2021/03/22 08:55:47;;;;;;;15.25;8.65;;;10.60;40.10;;;;;;1667982;86;21576;-73
2021/03/22 08:58:23;;;;;;;14.20;8.45;;;10.80;37.80;;;;;;1667932;86;21280;-73
2021/03/22 09:01:11;;;;;;;16.52;9.03;;;10.80;38.50;;;;;;1668227;86;21150;-74
2021/03/22 09:03:43;;;;;;;15.65;8.15;;;10.60;37.80;;;;;;1668103;86;21561;-73
2021/03/22 09:06:24;;;;;;;14.78;8.88;;;10.50;39.20;;;;;;1668272;86;21106;-73
2021/03/22 09:08:57;;;;;;;18.80;9.00;;;10.40;38.20;;;;;;1668054;86;21145;-73
2021/03/22 09:11:32;;;;;;;16.67;9.38;;;10.20;37.90;;;;;;1668347;86;21142;-73
2021/03/22 09:14:10;;;;;;;21.33;8.78;;;9.80;38.60;;;;;;1656975;84;21202;-74
2021/03/22 09:16:50;;;;;;;13.83;7.87;;;9.60;40.40;;;;;;1631806;88;21320;-73
2021/03/22 09:19:24;;;;;;;15.58;8.75;;;9.50;40.70;;;;;;1632976;88;21749;-73
2021/03/22 09:22:05;;;;;;;17.87;9.13;;;9.40;41.30;;;;;;1632973;88;21296;-73
2021/03/22 09:24:46;;;;;;;16.27;8.03;;;9.40;41.80;;;;;;1633054;88;21187;-73
2021/03/22 09:27:20;;;;;;;18.62;8.65;;;9.40;41.80;;;;;;1632775;88;21771;-72
2021/03/22 09:30:11;;;;;;;16.77;8.00;;;9.60;41.70;;;;;;1633049;88;21198;-73
2021/03/22 09:32:43;;;;;;;15.68;8.60;;;9.50;42.00;;;;;;1633059;88;21308;-73
2021/03/22 09:35:20;;;;;;;14.05;8.18;;;9.70;42.50;;;;;;1633155;88;21312;-73
2021/03/22 09:38:04;;;;;;;15.30;8.65;;;9.70;41.50;;;;;;1633171;88;21316;-72
2021/03/22 09:40:37;;;;;;;15.85;8.48;;;9.80;42.10;;;;;;1633095;88;21186;-73
2021/03/22 09:43:15;;;;;;;15.00;8.85;;;9.60;43.00;;;;;;1632877;88;21158;-72
2021/03/22 09:45:57;;;;;;;14.50;8.40;;;9.70;42.50;;;;;;1633094;88;21612;-74
2021/03/22 09:48:41;;;;;;;15.50;8.40;;;9.70;41.60;;;;;;1632856;88;21174;-73
2021/03/22 09:51:13;;;;;;;13.38;8.03;;;9.60;43.30;;;;;;1633065;88;21190;-73
2021/03/22 09:54:01;;;;;;;17.80;8.70;;;9.60;44.40;;;;;;1632947;88;21165;-73
2021/03/22 09:56:37;;;;;;;15.43;8.08;;;9.60;43.30;;;;;;1632957;88;21198;-74
2021/03/22 09:59:29;;;;;;;14.93;7.97;;;9.60;43.90;;;;;;1633526;88;21151;-72
2021/03/22 10:02:01;;;;;;;16.32;8.68;;;9.40;44.70;;;;;;1632890;88;21202;-73
2021/03/22 10:04:35;;;;;;;14.98;8.28;;;9.40;45.40;;;;;;1629535;88;21210;-74
2021/03/22 10:07:30;;;;;;;14.98;8.88;;;9.20;45.20;;;;;;1633020;88;21296;-74
2021/03/22 10:10:06;;;;;;;15.63;9.25;;;9.30;45.60;;;;;;1632867;88;21198;-74
2021/03/22 10:12:41;;;;;;;12.03;7.65;;;9.20;45.70;;;;;;1630644;88;21608;-74
2021/03/22 10:15:33;;;;;;;17.52;9.28;;;9.20;45.20;;;;;;1629566;86;21208;-73
2021/03/22 10:18:19;;;;;;;13.08;7.30;;;9.20;45.70;;;;;;1575540;89;21213;-73
2021/03/22 10:20:51;;;;;;;14.47;7.35;;;9.10;45.20;;;;;;1617632;88;21187;-73
2021/03/22 10:23:33;;;;;;;13.88;6.58;;;9.10;45.20;;;;;;1659787;86;21577;-73
2021/03/22 10:26:12;;;;;;;11.90;6.90;;;9.00;46.40;;;;;;1659789;86;21572;-74
2021/03/22 10:28:41;;;;;;;12.65;7.05;;;8.90;45.50;;;;;;1655054;85;21649;-74
2021/03/22 10:31:18;;;;;;;10.18;6.40;;;8.90;44.60;;;;;;1659651;86;21126;-74
2021/03/22 10:34:01;;;;;;;;;;;8.90;44.10;;;;;;1662095;86;21589;-73
2021/03/22 10:36:38;;;;;;;9.38;5.80;;;8.80;44.30;;;;;;1659824;86;20146;-74
2021/03/22 10:39:11;;;;;;;12.47;6.42;;;8.80;44.10;;;;;;1659948;86;21554;-75
2021/03/22 10:41:42;;;;;;;11.90;6.80;;;8.90;44.60;;;;;;1656571;85;21161;-74
2021/03/22 10:44:26;;;;;;;13.30;6.50;;;8.90;43.80;;;;;;1659680;86;21134;-74
2021/03/22 10:47:13;;;;;;;12.23;7.15;;;8.90;43.50;;;;;;1659846;86;21518;-74
2021/03/22 10:49:42;;;;;;;11.05;6.47;;;8.90;44.60;;;;;;1659681;86;21625;-75
2021/03/22 10:52:24;;;;;;;15.43;6.92;;;8.90;45.20;;;;;;1659842;86;21134;-77
2021/03/22 10:54:53;;;;;;;13.55;6.87;;;9.00;45.40;;;;;;1658589;86;21166;-78
2021/03/22 10:57:41;;;;;;;13.90;6.95;;;9.10;44.80;;;;;;1657881;86;21660;-77
2021/03/22 11:00:37;;;;;;;13.80;6.70;;;9.10;44.60;;;;;;1658462;86;21139;-83
2021/03/22 11:03:08;;;;;;;16.42;6.87;;;9.10;44.80;;;;;;1661122;84;21711;-79
2021/03/22 11:05:40;;;;;;;15.23;7.30;;;9.10;44.80;;;;;;1659446;86;21587;-79
2021/03/22 11:08:38;;;;;;;13.20;7.17;;;9.10;45.10;;;;;;1659919;86;21163;-78
2021/03/22 11:11:14;;;;;;;14.20;7.53;;;9.10;44.90;;;;;;1659596;86;21171;-75
2021/03/22 11:13:46;;;;;;;12.90;6.95;;;9.20;45.20;;;;;;1659678;86;21144;-75
2021/03/22 11:16:27;;;;;;;12.63;7.28;;;9.00;45.70;;;;;;1633236;86;21210;-74
2021/03/22 11:18:57;;;;;;;14.10;7.53;;;8.90;45.50;;;;;;1632516;88;21178;-79
2021/03/22 11:21:28;;;;;;;11.93;7.08;;;8.80;45.60;;;;;;1632774;88;21177;-75
2021/03/22 11:23:57;;;;;;;11.85;7.17;;;8.80;45.70;;;;;;1634198;86;21238;-77
2021/03/22 11:26:31;;;;;;;10.53;6.75;;;8.60;44.90;;;;;;1645646;86;21185;-79
2021/03/22 11:29:26;;;;;;;11.25;6.78;;;8.70;45.20;;;;;;1643086;86;21153;-80
2021/03/22 11:32:02;;;;;;;11.40;6.97;;;8.60;45.30;;;;;;1647609;86;21548;-79
2021/03/22 11:34:44;;;;;;;11.53;6.80;;;8.30;46.10;;;;;;1647780;86;21198;-75
2021/03/22 11:37:32;;;;;;;14.95;7.55;;;8.30;45.90;;;;;;1647862;86;21150;-76
2021/03/22 11:40:15;;;;;;;13.88;7.03;;;8.30;47.00;;;;;;1641286;86;21240;-76
2021/03/22 11:43:01;;;;;;;13.55;7.45;;;8.50;47.60;;;;;;1641228;86;21178;-78
2021/03/22 11:45:44;;;;;;;12.55;6.65;;;8.60;46.30;;;;;;1647911;86;21159;-80
2021/03/22 11:48:26;;;;;;;13.18;7.08;;;8.70;47.20;;;;;;1642058;86;21135;-80
2021/03/22 11:51:05;;;;;;;16.17;8.13;;;8.80;47.00;;;;;;1643031;86;21173;-80
2021/03/22 11:53:32;;;;;;;18.27;8.28;;;8.90;46.90;;;;;;1642353;86;21161;-80
2021/03/22 11:56:24;;;;;;;14.25;8.05;;;8.80;45.90;;;;;;1645722;86;21197;-80
2021/03/22 11:59:07;;;;;;;13.32;7.20;;;8.60;46.60;;;;;;1642557;86;21169;-79
2021/03/22 12:02:14;;;;;;;14.25;7.60;;;8.70;47.10;;;;;;1812824;77;23507;-79
2021/03/22 12:05:06;;;;;;;15.63;8.45;;;8.50;48.10;;;;;;1805338;78;21116;-78
2021/03/22 12:07:39;;;;;;;14.45;7.95;;;8.60;48.30;;;;;;1804756;78;21138;-78
2021/03/22 12:10:18;;;;;;;13.45;7.55;;;8.50;48.10;;;;;;1801757;78;21136;-75
2021/03/22 12:12:46;;;;;;;14.15;8.43;;;8.40;47.70;;;;;;1750002;81;21136;-74
2021/03/22 12:15:17;;;;;;;12.95;7.75;;;8.30;47.80;;;;;;1740084;81;21141;-75
2021/03/22 12:17:55;;;;;;;15.30;8.48;;;8.30;48.30;;;;;;1737220;81;21594;-75
2021/03/22 12:20:29;;;;;;;13.95;8.13;;;8.30;49.20;;;;;;1727383;82;21141;-76
2021/03/22 12:22:59;;;;;;;18.35;8.70;;;8.40;49.10;;;;;;1746724;81;21133;-75
2021/03/22 12:25:31;;;;;;;15.08;8.55;;;8.30;49.30;;;;;;1763305;81;21121;-75
2021/03/22 12:27:59;;;;;;;16.20;8.35;;;8.30;49.40;;;;;;1777473;81;21160;-73
2021/03/22 12:30:28;;;;;;;15.10;8.38;;;8.30;50.00;;;;;;1759785;81;21604;-74
2021/03/22 12:32:57;;;;;;;13.65;7.75;;;8.30;50.90;;;;;;1817973;78;21157;-75
2021/03/22 12:35:36;;;;;;;18.40;8.45;;;8.10;50.10;;;;;;1799230;78;21121;-73
2021/03/22 12:38:06;;;;;;;13.18;7.80;;;7.90;49.10;;;;;;1795754;80;21615;-79
2021/03/22 12:40:34;;;;;;;13.08;6.95;;;7.90;49.20;;;;;;1795898;80;21161;-78
2021/03/22 12:43:02;;;;;;;12.23;7.17;;;7.90;50.50;;;;;;1795535;80;21164;-83
2021/03/22 12:45:38;;;;;;;13.72;7.87;;;7.90;50.40;;;;;;1799988;78;21148;-75
2021/03/22 12:48:07;;;;;;;15.88;9.25;;;7.80;50.60;;;;;;1807324;78;21130;-76
2021/03/22 12:50:38;;;;;;;16.35;8.18;;;7.60;51.80;;;;;;1802027;78;21128;-79
2021/03/22 12:53:09;;;;;;;22.87;9.85;;;7.40;52.00;;;;;;1798709;80;21132;-76
2021/03/22 12:55:37;;;;;;;14.25;8.58;;;7.30;51.70;;;;;;1801423;78;21591;-74
2021/03/22 12:58:21;;;;;;;15.98;8.95;;;7.20;52.20;;;;;;1810614;78;21129;-74
2021/03/22 13:00:53;;;;;;;13.83;7.47;;;7.30;52.10;;;;;;1814093;78;21583;-74
2021/03/22 13:03:25;;;;;;;14.53;8.58;;;7.40;52.20;;;;;;1800872;78;21152;-73
2021/03/22 13:05:55;;;;;;;15.53;8.68;;;7.20;51.80;;;;;;1796474;79;21568;-73
2021/03/22 13:08:28;;;;;;;15.40;8.88;;;7.20;52.20;;;;;;1797177;80;21540;-75
2021/03/22 13:10:59;;;;;;;17.37;8.40;;;7.20;52.60;;;;;;1796515;80;21548;-76
2021/03/22 13:13:27;;;;;;;18.65;8.80;;;7.10;53.20;;;;;;1795874;80;21101;-75
2021/03/22 13:15:59;;;;;;;21.50;9.00;;;7.10;53.40;;;;;;1795976;80;21168;-81
2021/03/22 13:18:36;;;;;;;15.43;8.80;;;7.10;53.80;;;;;;1796135;80;21145;-75
2021/03/22 13:21:15;;;;;;;15.30;9.18;;;7.10;53.60;;;;;;1796202;79;21160;-81
2021/03/22 13:23:47;;;;;;;16.60;9.08;;;7.10;53.40;;;;;;1796266;79;21113;-81
2021/03/22 13:26:17;;;;;;;12.93;8.03;;;7.10;53.10;;;;;;1796323;78;21134;-75
2021/03/22 13:28:51;;;;;;;15.95;9.00;;;6.90;53.20;;;;;;1795965;79;21185;-79
2021/03/22 13:31:17;;;;;;;16.20;9.15;;;7.00;53.80;;;;;;1795424;80;21167;-86
2021/03/22 13:33:46;;;;;;;14.28;8.95;;;6.90;53.70;;;;;;1795966;80;21140;-81
2021/03/22 13:36:21;;;;;;;15.98;8.33;;;7.00;53.30;;;;;;1796028;78;21121;-82
2021/03/22 13:38:48;;;;;;;15.08;9.05;;;6.90;53.00;;;;;;1795754;80;21145;-85
2021/03/22 13:41:30;;;;;;;14.35;8.78;;;7.00;52.60;;;;;;1796172;80;21549;-86
2021/03/22 13:44:01;;;;;;;16.57;8.50;;;6.80;52.40;;;;;;1796502;80;21287;-87